createdAt,value
2019-05-20T00:00:28.462Z,71.60
2019-05-20T00:03:00.462Z,71.50
2019-05-20T00:05:31.455Z,71.40
2019-05-20T00:08:03.588Z,71.60
2019-05-20T00:10:34.749Z,71.10
2019-05-20T00:13:06.857Z,70.90
2019-05-20T00:15:38.860Z,70.70
2019-05-20T00:18:10.997Z,70.70
2019-05-20T00:20:45.038Z,70.60
2019-05-20T00:23:16.326Z,70.40
2019-05-20T00:25:48.326Z,70.30
2019-05-20T00:28:20.586Z,70.20
2019-05-20T00:30:51.666Z,70.20
2019-05-20T00:33:22.637Z,70.00
2019-05-20T00:35:53.470Z,69.80
2019-05-20T00:38:24.443Z,69.80
2019-05-20T00:40:57.432Z,69.60
2019-05-20T00:43:28.422Z,69.40
2019-05-20T00:46:00.801Z,70.00
2019-05-20T00:48:32.899Z,69.00
2019-05-20T00:51:04.833Z,68.40
2019-05-20T00:53:36.703Z,68.30
2019-05-20T00:56:07.882Z,67.90
2019-05-20T00:58:41.162Z,67.60
2019-05-20T01:01:12.282Z,67.10
2019-05-20T01:03:45.549Z,66.70
2019-05-20T01:06:16.641Z,66.60
2019-05-20T01:08:48.772Z,66.20
2019-05-20T01:11:22.231Z,66.10
2019-05-20T01:13:54.237Z,65.90
2019-05-20T01:16:26.825Z,65.60
2019-05-20T01:18:58.695Z,65.30
2019-05-20T01:21:30.700Z,65.20
2019-05-20T01:24:01.681Z,65.20
2019-05-20T01:26:33.592Z,64.80
2019-05-20T01:29:06.163Z,64.60
2019-05-20T01:31:38.295Z,65.40
2019-05-20T01:34:09.119Z,64.30
2019-05-20T01:36:40.101Z,64.00
2019-05-20T01:39:13.405Z,63.70
2019-05-20T01:41:44.345Z,63.60
2019-05-20T01:44:16.274Z,63.50
2019-05-20T01:46:48.418Z,63.20
2019-05-20T01:49:20.486Z,63.10
2019-05-20T01:51:52.554Z,62.80
2019-05-20T01:54:23.799Z,62.60
2019-05-20T01:56:57.706Z,62.50
2019-05-20T01:59:29.793Z,62.50
2019-05-20T02:02:01.754Z,62.30
2019-05-20T02:04:32.913Z,62.30
2019-05-20T02:07:03.807Z,62.30
2019-05-20T02:09:34.959Z,62.30
2019-05-20T02:12:07.044Z,62.00
2019-05-20T02:14:39.404Z,62.00
2019-05-20T02:17:13.137Z,61.60
2019-05-20T02:19:45.186Z,61.60
2019-05-20T02:22:17.225Z,61.30
2019-05-20T02:24:48.369Z,61.20
2019-05-20T02:27:22.130Z,61.20
2019-05-20T02:29:54.251Z,61.00
2019-05-20T02:32:25.245Z,60.90
2019-05-20T02:34:58.928Z,60.50
2019-05-20T02:37:29.832Z,60.20
2019-05-20T02:40:03.770Z,60.20
2019-05-20T02:42:34.100Z,60.00
2019-05-20T02:45:06.310Z,59.90
2019-05-20T02:47:38.226Z,59.70
2019-05-20T12:34:37.489Z,53.20
2019-05-20T12:37:10.497Z,53.50
2019-05-20T12:39:43.295Z,54.00
2019-05-20T12:42:16.592Z,54.40
2019-05-20T12:44:49.484Z,54.70
2019-05-20T12:47:21.773Z,55.00
2019-05-20T12:49:54.084Z,55.10
2019-05-20T12:52:26.958Z,55.30
2019-05-20T12:55:08.134Z,55.50
2019-05-20T12:57:34.937Z,55.70
2019-05-20T13:00:10.986Z,55.70
2019-05-20T13:02:44.889Z,55.80
2019-05-20T13:05:17.262Z,56.10
2019-05-20T13:07:50.627Z,56.20
2019-05-20T13:10:29.674Z,56.40
2019-05-20T13:12:58.402Z,56.70
2019-05-20T13:15:30.963Z,56.80
2019-05-20T13:18:04.466Z,57.00
2019-05-20T13:20:36.822Z,57.30
2019-05-20T13:23:12.039Z,57.30
2019-05-20T13:25:44.669Z,57.40
2019-05-20T13:28:16.637Z,57.50
2019-05-20T13:30:50.433Z,57.60
2019-05-20T13:33:21.395Z,57.60
2019-05-20T13:35:56.720Z,57.40
2019-05-20T13:38:29.048Z,57.80
2019-05-20T13:41:04.280Z,58.00
2019-05-20T13:43:38.065Z,58.10
2019-05-20T13:46:10.050Z,58.30
2019-05-20T13:48:45.212Z,58.00
2019-05-20T13:51:17.607Z,58.40
2019-05-20T13:53:50.059Z,58.50
2019-05-20T13:56:22.459Z,58.70
2019-05-20T13:58:54.813Z,58.90
2019-05-20T14:01:27.177Z,59.20
2019-05-20T14:03:59.483Z,59.20
2019-05-20T14:06:32.887Z,59.30
2019-05-20T14:09:07.801Z,59.20
2019-05-20T14:11:41.300Z,59.30
2019-05-20T14:14:14.556Z,59.30
2019-05-20T14:16:47.884Z,59.50
2019-05-20T14:19:22.667Z,59.60
2019-05-20T14:21:58.523Z,59.60
2019-05-20T14:24:31.774Z,59.60
2019-05-20T14:27:04.110Z,59.80
2019-05-20T14:29:36.266Z,59.80
2019-05-20T14:32:09.571Z,60.10
2019-05-20T14:34:44.913Z,60.30
2019-05-20T14:37:19.532Z,60.40
2019-05-20T14:39:52.508Z,60.90
2019-05-20T14:42:25.650Z,60.90
2019-05-20T14:44:59.066Z,61.20
2019-05-20T14:47:31.506Z,61.20
2019-05-20T14:50:04.760Z,61.70
2019-05-20T14:52:38.092Z,61.80
2019-05-20T14:55:11.818Z,62.00
2019-05-20T14:57:45.345Z,62.00
2019-05-20T15:00:17.939Z,62.10
2019-05-20T15:02:51.531Z,62.20
2019-05-20T15:05:24.979Z,62.40
2019-05-20T15:07:57.249Z,62.50
2019-05-20T15:10:30.837Z,62.50
2019-05-20T15:13:03.281Z,62.30
2019-05-20T15:15:37.053Z,62.10
2019-05-20T15:18:10.332Z,62.30
2019-05-20T15:20:45.524Z,62.30
2019-05-20T15:23:17.856Z,63.40
2019-05-20T15:25:51.104Z,62.70
2019-05-20T15:28:23.508Z,62.70
2019-05-20T15:30:55.771Z,63.30
2019-05-20T15:33:28.122Z,62.80
2019-05-20T15:36:03.723Z,62.90
2019-05-20T15:38:37.199Z,63.10
2019-05-20T15:41:12.158Z,63.40
2019-05-20T15:43:44.477Z,63.30
2019-05-20T15:46:17.755Z,63.40
2019-05-20T15:48:50.118Z,63.70
2019-05-20T15:51:23.362Z,64.00
2019-05-20T15:53:56.588Z,63.60
2019-05-20T15:56:29.149Z,63.80
2019-05-20T15:59:02.420Z,63.90
2019-05-20T16:01:34.806Z,63.70
2019-05-20T16:04:07.875Z,63.80
2019-05-20T16:06:39.877Z,63.70
2019-05-20T16:09:17.135Z,63.90
2019-05-20T16:11:49.905Z,63.90
2019-05-20T16:14:23.107Z,64.00
2019-05-20T16:16:56.008Z,64.00
2019-05-20T16:19:29.431Z,63.90
2019-05-20T16:22:01.673Z,64.00
2019-05-20T16:24:34.115Z,64.30
2019-05-20T16:27:07.517Z,63.80
2019-05-20T16:29:39.742Z,64.20
2019-05-20T16:32:14.508Z,64.40
2019-05-20T16:34:47.718Z,64.40
2019-05-20T16:37:20.652Z,64.40
2019-05-20T16:39:53.518Z,64.60
2019-05-20T16:42:26.791Z,65.00
2019-05-20T16:44:59.875Z,64.80
2019-05-20T16:47:32.288Z,64.80
2019-05-20T16:50:04.966Z,64.30
2019-05-20T16:52:40.164Z,64.50
2019-05-20T16:55:13.834Z,64.90
2019-05-20T16:57:46.793Z,65.30
2019-05-20T17:00:31.365Z,64.70
2019-05-20T17:02:55.458Z,65.00
2019-05-20T17:05:27.893Z,65.20
2019-05-20T17:08:01.201Z,65.60
2019-05-20T17:10:34.497Z,65.20
2019-05-20T17:13:07.989Z,65.70
2019-05-20T17:15:41.356Z,65.50
2019-05-20T17:18:17.345Z,65.30
2019-05-20T17:20:49.757Z,65.70
2019-05-20T17:23:22.123Z,65.20
2019-05-20T17:25:55.555Z,65.40
2019-05-20T17:28:27.957Z,66.00
2019-05-20T17:31:01.400Z,66.50
2019-05-20T17:33:33.770Z,65.90
2019-05-20T17:36:07.164Z,66.10
2019-05-20T17:38:41.205Z,66.50
2019-05-20T17:41:15.261Z,66.60
2019-05-20T17:43:48.663Z,66.50
2019-05-20T17:46:21.784Z,66.40
2019-05-20T17:48:56.643Z,66.60
2019-05-20T17:51:31.365Z,67.10
2019-05-20T17:54:04.563Z,67.50
2019-05-20T17:56:37.824Z,67.70
2019-05-20T17:59:10.165Z,67.90
2019-05-20T18:01:42.342Z,67.90
2019-05-20T18:04:15.796Z,67.90
2019-05-20T18:06:49.200Z,67.90
2019-05-20T18:09:22.670Z,68.00
2019-05-20T18:11:57.717Z,68.00
2019-05-20T18:14:30.168Z,68.00
2019-05-20T18:17:03.331Z,68.20
2019-05-20T18:19:35.433Z,68.20
2019-05-20T18:22:08.487Z,68.10
2019-05-20T18:24:41.835Z,68.10
2019-05-20T18:27:14.116Z,68.40
2019-05-20T18:29:47.280Z,68.60
2019-05-20T18:32:19.587Z,68.50
2019-05-20T18:34:52.966Z,68.20
2019-05-20T18:37:25.888Z,68.50
2019-05-20T18:40:12.754Z,68.90
2019-05-20T18:42:35.771Z,69.20
2019-05-20T18:45:11.839Z,69.40
2019-05-20T18:47:45.031Z,70.40
2019-05-20T18:50:18.064Z,69.80
2019-05-20T18:52:51.763Z,70.10
2019-05-20T18:55:23.879Z,69.80
2019-05-20T18:57:56.362Z,69.50
2019-05-20T19:00:29.827Z,69.20
2019-05-20T19:03:02.003Z,69.40
2019-05-20T19:05:37.115Z,69.30
2019-05-20T19:08:10.677Z,69.60
2019-05-20T19:10:43.780Z,69.50
2019-05-20T19:13:17.248Z,69.40
2019-05-20T19:15:50.573Z,69.30
2019-05-20T19:18:25.590Z,69.20
2019-05-20T19:20:59.018Z,69.40
2019-05-20T19:23:33.663Z,69.50
2019-05-20T19:26:06.519Z,69.90
2019-05-20T19:28:41.728Z,70.00
2019-05-20T19:31:15.074Z,70.20
2019-05-20T19:33:47.398Z,70.10
2019-05-20T19:36:20.558Z,70.30
2019-05-20T19:38:53.641Z,70.40
2019-05-20T19:41:26.875Z,70.30
2019-05-20T19:44:00.959Z,70.50
2019-05-20T19:46:32.906Z,71.20
2019-05-20T19:49:06.212Z,70.70
2019-05-20T19:51:39.435Z,70.30
2019-05-20T19:54:13.516Z,70.40
2019-05-20T19:56:47.026Z,70.70
2019-05-20T19:59:19.351Z,70.50
2019-05-20T20:01:52.426Z,70.60
2019-05-20T20:04:25.909Z,70.60
2019-05-20T20:06:58.269Z,70.60
2019-05-20T20:09:31.644Z,70.90
2019-05-20T20:12:06.452Z,70.70
2019-05-20T20:14:39.723Z,71.00
2019-05-20T20:17:13.120Z,71.10
2019-05-20T20:19:46.392Z,71.30
2019-05-20T20:22:19.719Z,71.40
2019-05-20T20:24:52.150Z,71.50
2019-05-20T20:27:24.598Z,71.50
2019-05-20T20:29:58.085Z,71.30
2019-05-20T20:32:38.140Z,71.40
2019-05-20T20:35:05.734Z,71.50
2019-05-20T20:37:39.343Z,70.90
2019-05-20T20:40:12.982Z,70.90
2019-05-20T20:42:45.349Z,71.00
2019-05-20T20:45:20.754Z,71.40
2019-05-20T20:47:53.928Z,71.50
2019-05-20T20:50:27.413Z,71.70
2019-05-20T20:52:59.909Z,71.70
2019-05-20T20:55:33.076Z,71.40
2019-05-20T20:58:06.474Z,71.30
2019-05-20T21:00:38.761Z,71.70
2019-05-20T21:03:12.261Z,72.00
2019-05-20T21:05:45.203Z,71.90
2019-05-20T21:08:20.121Z,72.30
2019-05-20T21:10:53.383Z,72.40
2019-05-20T21:13:26.838Z,72.60
2019-05-20T21:16:00.519Z,72.50
2019-05-20T21:18:35.704Z,72.40
2019-05-20T21:21:07.966Z,72.60
2019-05-20T21:23:40.308Z,72.50
2019-05-20T21:26:13.640Z,72.70
2019-05-20T21:28:47.772Z,72.90
2019-05-20T21:31:19.662Z,72.80
2019-05-20T21:33:53.410Z,74.60
2019-05-20T21:36:26.684Z,73.30
2019-05-20T21:38:59.644Z,73.20
2019-05-20T21:41:34.049Z,73.30
2019-05-20T21:44:06.691Z,73.20
2019-05-20T21:46:40.041Z,73.20
2019-05-20T21:49:13.391Z,73.20
2019-05-20T21:51:46.952Z,72.80
2019-05-20T21:54:20.271Z,72.60
2019-05-20T21:56:53.233Z,72.50
2019-05-20T21:59:26.800Z,72.20
2019-05-20T22:01:59.734Z,72.20
2019-05-20T22:04:35.317Z,72.00
2019-05-20T22:07:08.600Z,71.90
2019-05-20T22:09:42.114Z,71.90
2019-05-20T22:12:15.423Z,71.80
2019-05-20T22:14:48.559Z,71.80
2019-05-20T22:17:20.915Z,72.00
2019-05-20T22:19:54.233Z,71.90
2019-05-20T22:22:46.807Z,71.90
2019-05-20T22:25:20.566Z,72.10
2019-05-20T22:27:55.408Z,72.30
2019-05-20T22:30:28.871Z,72.40
2019-05-20T22:33:02.064Z,72.50
2019-05-20T22:35:35.712Z,72.70
2019-05-20T22:38:10.704Z,72.60
2019-05-20T22:40:44.212Z,72.70
2019-05-20T22:43:18.699Z,73.80
2019-05-20T22:45:52.122Z,72.60
2019-05-20T22:48:25.498Z,72.50
2019-05-20T22:50:58.952Z,72.70
2019-05-20T22:53:32.207Z,72.90
2019-05-20T22:56:05.407Z,72.80
2019-05-20T22:58:38.773Z,72.80
2019-05-20T23:01:12.128Z,73.00
2019-05-20T23:03:55.953Z,72.70
2019-05-20T23:06:19.870Z,72.60
2019-05-20T23:08:53.229Z,72.10
2019-05-20T23:11:26.222Z,72.20
2019-05-20T23:13:59.554Z,72.70
2019-05-20T23:16:34.611Z,72.50
2019-05-20T23:19:09.671Z,72.30
2019-05-20T23:21:42.991Z,72.60
2019-05-20T23:24:16.273Z,72.50
2019-05-20T23:26:48.339Z,72.90
2019-05-20T23:29:22.008Z,73.00
2019-05-20T23:31:55.219Z,72.90
2019-05-20T23:34:28.909Z,72.80
2019-05-20T23:37:01.860Z,73.40
2019-05-20T23:39:35.473Z,72.40
2019-05-20T23:42:10.983Z,72.20
2019-05-20T23:44:44.224Z,72.20
2019-05-20T23:47:17.320Z,73.10
2019-05-20T23:49:50.773Z,72.40
2019-05-20T23:52:25.923Z,72.30
2019-05-20T23:54:59.335Z,72.60
2019-05-20T23:57:31.189Z,72.50
